sensor_id;sensor_type;location;lat;lon;timestamp;noise_LAeq;noise_LA_min;noise_LA_max;noise_LA01;noise_LA95
60031;Laerm;45901;47.600;9.890;2023-04-25T00:01:48;40.37;37.52;47.08;;
60031;Laerm;45901;47.600;9.890;2023-04-25T00:04:17;40.01;37.88;41.68;;
60031;Laerm;45901;47.600;9.890;2023-04-25T00:06:44;40.00;37.52;41.61;;
60031;Laerm;45901;47.600;9.890;2023-04-25T00:09:11;39.99;38.05;41.61;;
60031;Laerm;45901;47.600;9.890;2023-04-25T00:11:40;40.00;37.52;41.89;;
60031;Laerm;45901;47.600;9.890;2023-04-25T00:14:08;40.00;37.70;41.75;;
60031;Laerm;45901;47.600;9.890;2023-04-25T00:16:35;40.06;37.70;45.36;;
60031;Laerm;45901;47.600;9.890;2023-04-25T00:19:03;40.00;37.52;41.61;;
60031;Laerm;45901;47.600;9.890;2023-04-25T00:21:30;40.02;37.52;41.61;;
60031;Laerm;45901;47.600;9.890;2023-04-25T00:23:58;40.01;37.70;41.81;;
60031;Laerm;45901;47.600;9.890;2023-04-25T00:26:26;39.98;37.88;42.09;;
60031;Laerm;45901;47.600;9.890;2023-04-25T00:28:53;40.00;37.88;41.61;;
60031;Laerm;45901;47.600;9.890;2023-04-25T00:31:22;40.18;37.52;45.97;;
60031;Laerm;45901;47.600;9.890;2023-04-25T00:33:50;40.00;37.32;41.75;;
60031;Laerm;45901;47.600;9.890;2023-04-25T00:36:17;40.01;37.52;41.89;;
60031;Laerm;45901;47.600;9.890;2023-04-25T00:38:44;40.00;37.52;41.61;;
60031;Laerm;45901;47.600;9.890;2023-04-25T00:41:12;40.01;37.70;42.09;;
60031;Laerm;45901;47.600;9.890;2023-04-25T00:43:40;40.03;37.52;41.75;;
60031;Laerm;45901;47.600;9.890;2023-04-25T00:46:08;40.16;38.05;47.40;;
60031;Laerm;45901;47.600;9.890;2023-04-25T00:48:36;39.94;37.88;41.46;;
60031;Laerm;45901;47.600;9.890;2023-04-25T00:51:04;39.92;37.32;41.75;;
60031;Laerm;45901;47.600;9.890;2023-04-25T00:53:33;39.91;37.52;41.53;;
60031;Laerm;45901;47.600;9.890;2023-04-25T00:56:00;39.89;37.88;41.68;;
60031;Laerm;45901;47.600;9.890;2023-04-25T00:58:27;39.88;37.88;41.46;;
60031;Laerm;45901;47.600;9.890;2023-04-25T01:00:56;40.16;37.70;46.48;;
60031;Laerm;45901;47.600;9.890;2023-04-25T01:03:24;39.87;37.88;42.06;;
60031;Laerm;45901;47.600;9.890;2023-04-25T01:05:55;39.92;37.88;41.61;;
60031;Laerm;45901;47.600;9.890;2023-04-25T01:08:24;39.90;37.52;41.75;;
60031;Laerm;45901;47.600;9.890;2023-04-25T01:10:52;39.90;37.88;41.61;;
60031;Laerm;45901;47.600;9.890;2023-04-25T01:13:19;39.92;37.52;41.46;;
60031;Laerm;45901;47.600;9.890;2023-04-25T01:15:46;39.94;38.05;44.15;;
60031;Laerm;45901;47.600;9.890;2023-04-25T01:18:14;39.84;37.88;41.38;;
60031;Laerm;45901;47.600;9.890;2023-04-25T01:20:42;39.84;37.70;41.53;;
60031;Laerm;45901;47.600;9.890;2023-04-25T01:23:12;39.81;37.52;41.38;;
60031;Laerm;45901;47.600;9.890;2023-04-25T01:25:40;39.80;37.52;41.46;;
60031;Laerm;45901;47.600;9.890;2023-04-25T01:28:09;39.80;37.12;41.38;;
60031;Laerm;45901;47.600;9.890;2023-04-25T01:30:36;39.87;37.70;44.58;;
60031;Laerm;45901;47.600;9.890;2023-04-25T01:33:05;39.91;37.88;41.38;;
60031;Laerm;45901;47.600;9.890;2023-04-25T01:35:34;39.93;37.52;41.75;;
60031;Laerm;45901;47.600;9.890;2023-04-25T01:38:01;39.80;37.32;41.53;;
60031;Laerm;45901;47.600;9.890;2023-04-25T01:40:30;39.84;37.70;41.68;;
60031;Laerm;45901;47.600;9.890;2023-04-25T01:42:58;39.87;38.05;42.03;;
60031;Laerm;45901;47.600;9.890;2023-04-25T01:45:25;39.87;37.32;44.76;;
60031;Laerm;45901;47.600;9.890;2023-04-25T01:47:52;39.79;37.32;41.38;;
60031;Laerm;45901;47.600;9.890;2023-04-25T01:50:20;39.85;37.32;41.53;;
60031;Laerm;45901;47.600;9.890;2023-04-25T01:52:47;39.83;37.32;41.38;;
60031;Laerm;45901;47.600;9.890;2023-04-25T01:55:14;39.90;37.70;42.47;;
60031;Laerm;45901;47.600;9.890;2023-04-25T01:57:43;40.02;37.70;46.15;;
60031;Laerm;45901;47.600;9.890;2023-04-25T02:00:12;40.15;38.02;46.45;;
60031;Laerm;45901;47.600;9.890;2023-04-25T02:02:40;39.95;37.70;44.27;;
60031;Laerm;45901;47.600;9.890;2023-04-25T02:05:07;39.98;37.52;41.61;;
60031;Laerm;45901;47.600;9.890;2023-04-25T02:07:35;39.97;37.52;41.61;;
60031;Laerm;45901;47.600;9.890;2023-04-25T02:10:03;39.99;37.12;41.75;;
60031;Laerm;45901;47.600;9.890;2023-04-25T02:12:31;40.00;37.88;41.55;;
60031;Laerm;45901;47.600;9.890;2023-04-25T02:14:59;40.00;37.32;41.75;;
60031;Laerm;45901;47.600;9.890;2023-04-25T02:17:27;40.00;37.88;44.73;;
60031;Laerm;45901;47.600;9.890;2023-04-25T02:19:54;40.09;37.88;43.19;;
60031;Laerm;45901;47.600;9.890;2023-04-25T02:22:21;39.96;37.88;41.53;;
60031;Laerm;45901;47.600;9.890;2023-04-25T02:24:48;39.95;37.32;41.75;;
60031;Laerm;45901;47.600;9.890;2023-04-25T02:27:16;39.95;37.70;42.22;;
60031;Laerm;45901;47.600;9.890;2023-04-25T02:29:43;39.98;37.88;41.61;;
60031;Laerm;45901;47.600;9.890;2023-04-25T02:32:12;40.02;37.70;45.14;;
60031;Laerm;45901;47.600;9.890;2023-04-25T02:34:39;39.93;37.32;41.75;;
60031;Laerm;45901;47.600;9.890;2023-04-25T02:37:06;39.94;37.52;41.75;;
60031;Laerm;45901;47.600;9.890;2023-04-25T02:39:33;39.92;37.70;41.61;;
60031;Laerm;45901;47.600;9.890;2023-04-25T02:42:00;39.88;37.32;41.89;;
60031;Laerm;45901;47.600;9.890;2023-04-25T02:44:28;39.91;37.32;41.89;;
60031;Laerm;45901;47.600;9.890;2023-04-25T02:46:55;40.46;37.70;48.03;;
60031;Laerm;45901;47.600;9.890;2023-04-25T02:49:24;39.92;37.32;41.61;;
60031;Laerm;45901;47.600;9.890;2023-04-25T02:51:51;40.38;37.70;48.99;;
60031;Laerm;45901;47.600;9.890;2023-04-25T02:54:19;39.91;37.32;41.96;;
60031;Laerm;45901;47.600;9.890;2023-04-25T02:56:46;39.90;37.32;41.53;;
60031;Laerm;45901;47.600;9.890;2023-04-25T02:59:13;39.90;37.12;41.68;;
60031;Laerm;45901;47.600;9.890;2023-04-25T03:01:40;40.41;37.87;46.78;;
60031;Laerm;45901;47.600;9.890;2023-04-25T03:04:08;39.90;37.52;41.68;;
60031;Laerm;45901;47.600;9.890;2023-04-25T03:06:37;39.86;37.70;41.61;;
60031;Laerm;45901;47.600;9.890;2023-04-25T03:09:04;39.99;37.52;42.29;;
60031;Laerm;45901;47.600;9.890;2023-04-25T03:11:31;39.95;37.70;41.68;;
60031;Laerm;45901;47.600;9.890;2023-04-25T03:13:58;39.89;37.70;41.96;;
60031;Laerm;45901;47.600;9.890;2023-04-25T03:16:25;39.97;37.52;45.39;;
60031;Laerm;45901;47.600;9.890;2023-04-25T03:18:52;39.97;37.52;42.09;;
60031;Laerm;45901;47.600;9.890;2023-04-25T03:21:20;40.04;37.88;41.75;;
60031;Laerm;45901;47.600;9.890;2023-04-25T03:23:48;40.23;37.70;43.44;;
60031;Laerm;45901;47.600;9.890;2023-04-25T03:26:15;40.30;38.05;44.31;;
60031;Laerm;45901;47.600;9.890;2023-04-25T03:28:43;40.27;37.88;44.11;;
60031;Laerm;45901;47.600;9.890;2023-04-25T03:31:10;40.57;37.88;48.34;;
60031;Laerm;45901;47.600;9.890;2023-04-25T03:33:37;40.86;37.70;50.00;;
60031;Laerm;45901;47.600;9.890;2023-04-25T03:36:05;40.74;37.52;50.05;;
60031;Laerm;45901;47.600;9.890;2023-04-25T03:38:32;40.86;37.52;49.33;;
60031;Laerm;45901;47.600;9.890;2023-04-25T03:41:01;39.99;37.88;41.68;;
60031;Laerm;45901;47.600;9.890;2023-04-25T03:43:28;40.22;37.70;43.49;;
60031;Laerm;45901;47.600;9.890;2023-04-25T03:45:56;40.61;37.88;45.69;;
60031;Laerm;45901;47.600;9.890;2023-04-25T03:48:23;40.52;37.32;46.97;;
60031;Laerm;45901;47.600;9.890;2023-04-25T03:50:52;40.43;37.70;44.39;;
60031;Laerm;45901;47.600;9.890;2023-04-25T03:53:19;40.74;38.37;48.76;;
60031;Laerm;45901;47.600;9.890;2023-04-25T03:55:46;40.52;38.32;49.75;;
60031;Laerm;45901;47.600;9.890;2023-04-25T03:58:14;40.38;38.05;54.36;;
60031;Laerm;45901;47.600;9.890;2023-04-25T04:00:42;40.76;37.70;52.74;;
60031;Laerm;45901;47.600;9.890;2023-04-25T04:03:09;40.38;38.05;46.15;;
60031;Laerm;45901;47.600;9.890;2023-04-25T04:05:36;40.23;37.88;42.65;;
60031;Laerm;45901;47.600;9.890;2023-04-25T04:08:06;40.31;37.88;44.54;;
60031;Laerm;45901;47.600;9.890;2023-04-25T04:10:33;40.33;38.37;42.65;;
60031;Laerm;45901;47.600;9.890;2023-04-25T04:13:00;40.38;38.37;44.03;;
60031;Laerm;45901;47.600;9.890;2023-04-25T04:15:29;40.31;38.37;45.33;;
60031;Laerm;45901;47.600;9.890;2023-04-25T04:17:58;40.11;38.21;41.82;;
60031;Laerm;45901;47.600;9.890;2023-04-25T04:20:28;40.23;37.88;47.93;;
60031;Laerm;45901;47.600;9.890;2023-04-25T04:22:56;40.32;37.88;44.43;;
60031;Laerm;45901;47.600;9.890;2023-04-25T04:25:23;40.30;38.05;48.99;;
60031;Laerm;45901;47.600;9.890;2023-04-25T04:27:52;40.28;37.88;44.11;;
60031;Laerm;45901;47.600;9.890;2023-04-25T04:30:21;40.33;37.88;45.23;;
60031;Laerm;45901;47.600;9.890;2023-04-25T04:32:51;40.27;37.88;44.49;;
60031;Laerm;45901;47.600;9.890;2023-04-25T04:35:18;40.20;37.88;42.16;;
60031;Laerm;45901;47.600;9.890;2023-04-25T04:37:45;40.24;37.52;44.35;;
60031;Laerm;45901;47.600;9.890;2023-04-25T04:40:14;40.31;38.05;42.59;;
60031;Laerm;45901;47.600;9.890;2023-04-25T04:42:42;40.12;38.05;44.62;;
60031;Laerm;45901;47.600;9.890;2023-04-25T04:45:10;40.19;38.05;45.36;;
60031;Laerm;45901;47.600;9.890;2023-04-25T04:47:38;40.22;38.21;44.47;;
60031;Laerm;45901;47.600;9.890;2023-04-25T04:50:08;40.55;37.88;54.60;;
60031;Laerm;45901;47.600;9.890;2023-04-25T04:52:36;40.35;37.88;44.80;;
60031;Laerm;45901;47.600;9.890;2023-04-25T04:55:05;40.65;38.18;54.25;;
60031;Laerm;45901;47.600;9.890;2023-04-25T04:57:34;40.21;38.21;43.49;;
60031;Laerm;45901;47.600;9.890;2023-04-25T05:00:01;40.91;38.37;45.45;;
60031;Laerm;45901;47.600;9.890;2023-04-25T05:02:34;40.60;38.52;45.14;;
60031;Laerm;45901;47.600;9.890;2023-04-25T05:05:01;40.83;37.88;45.27;;
60031;Laerm;45901;47.600;9.890;2023-04-25T05:07:29;40.45;37.88;43.81;;
60031;Laerm;45901;47.600;9.890;2023-04-25T05:09:56;40.20;38.21;42.22;;
60031;Laerm;45901;47.600;9.890;2023-04-25T05:12:23;40.31;38.21;43.04;;
60031;Laerm;45901;47.600;9.890;2023-04-25T05:14:51;40.32;37.88;44.11;;
60031;Laerm;45901;47.600;9.890;2023-04-25T05:17:18;41.60;37.70;65.66;;
60031;Laerm;45901;47.600;9.890;2023-04-25T05:19:45;40.87;38.37;62.38;;
60031;Laerm;45901;47.600;9.890;2023-04-25T05:22:12;40.70;38.37;48.37;;
60031;Laerm;45901;47.600;9.890;2023-04-25T05:24:41;41.18;38.95;46.38;;
60031;Laerm;45901;47.600;9.890;2023-04-25T05:27:08;41.42;39.34;43.44;;
60031;Laerm;45901;47.600;9.890;2023-04-25T05:29:35;41.40;39.58;44.07;;
60031;Laerm;45901;47.600;9.890;2023-04-25T05:32:05;41.48;39.58;46.71;;
60031;Laerm;45901;47.600;9.890;2023-04-25T05:34:33;40.81;38.37;44.58;;
60031;Laerm;45901;47.600;9.890;2023-04-25T05:37:00;40.49;38.21;44.31;;
60031;Laerm;45901;47.600;9.890;2023-04-25T05:39:27;40.25;37.52;50.38;;
60031;Laerm;45901;47.600;9.890;2023-04-25T05:41:56;40.56;38.05;44.83;;
60031;Laerm;45901;47.600;9.890;2023-04-25T05:44:24;40.37;38.05;42.47;;
60031;Laerm;45901;47.600;9.890;2023-04-25T05:46:51;48.03;38.81;57.74;;
60031;Laerm;45901;47.600;9.890;2023-04-25T05:49:20;40.81;38.37;43.44;;
60031;Laerm;45901;47.600;9.890;2023-04-25T05:51:47;40.53;38.37;46.20;;
60031;Laerm;45901;47.600;9.890;2023-04-25T05:54:15;40.76;38.21;48.74;;
60031;Laerm;45901;47.600;9.890;2023-04-25T05:56:43;40.36;38.02;43.09;;
60031;Laerm;45901;47.600;9.890;2023-04-25T05:59:11;40.38;38.05;43.68;;
60031;Laerm;45901;47.600;9.890;2023-04-25T06:01:39;40.68;37.70;49.30;;
60031;Laerm;45901;47.600;9.890;2023-04-25T06:04:06;40.32;37.70;42.41;;
60031;Laerm;45901;47.600;9.890;2023-04-25T06:06:34;40.36;37.88;43.39;;
60031;Laerm;45901;47.600;9.890;2023-04-25T06:09:01;40.24;38.18;43.64;;
60031;Laerm;45901;47.600;9.890;2023-04-25T06:11:28;40.33;37.87;44.19;;
60031;Laerm;45901;47.600;9.890;2023-04-25T06:13:56;40.32;37.70;44.31;;
60031;Laerm;45901;47.600;9.890;2023-04-25T06:16:24;41.71;38.37;48.69;;
60031;Laerm;45901;47.600;9.890;2023-04-25T06:18:52;41.45;37.70;47.59;;
60031;Laerm;45901;47.600;9.890;2023-04-25T06:21:19;40.19;37.12;42.82;;
60031;Laerm;45901;47.600;9.890;2023-04-25T06:23:46;40.36;37.52;43.44;;
60031;Laerm;45901;47.600;9.890;2023-04-25T06:26:13;46.42;38.05;53.05;;
60031;Laerm;45901;47.600;9.890;2023-04-25T06:28:41;42.69;37.52;52.13;;
60031;Laerm;45901;47.600;9.890;2023-04-25T06:31:08;40.03;37.12;45.27;;
60031;Laerm;45901;47.600;9.890;2023-04-25T06:33:36;40.19;37.32;47.55;;
60031;Laerm;45901;47.600;9.890;2023-04-25T06:36:04;40.31;37.32;43.29;;
60031;Laerm;45901;47.600;9.890;2023-04-25T06:38:31;40.09;37.12;45.17;;
60031;Laerm;45901;47.600;9.890;2023-04-25T06:41:00;40.31;37.52;43.81;;
60031;Laerm;45901;47.600;9.890;2023-04-25T06:43:28;40.42;37.32;45.94;;
60031;Laerm;45901;47.600;9.890;2023-04-25T06:45:59;40.47;37.88;47.30;;
60031;Laerm;45901;47.600;9.890;2023-04-25T06:48:26;40.94;38.05;53.72;;
60031;Laerm;45901;47.600;9.890;2023-04-25T06:50:55;40.47;37.88;46.52;;
60031;Laerm;45901;47.600;9.890;2023-04-25T06:53:23;40.08;37.88;43.72;;
60031;Laerm;45901;47.600;9.890;2023-04-25T06:55:50;40.47;37.32;44.03;;
60031;Laerm;45901;47.600;9.890;2023-04-25T06:58:17;40.24;37.70;46.38;;
60031;Laerm;45901;47.600;9.890;2023-04-25T07:00:45;40.73;38.21;47.81;;
60031;Laerm;45901;47.600;9.890;2023-04-25T07:03:12;40.52;38.05;47.68;;
60031;Laerm;45901;47.600;9.890;2023-04-25T07:05:39;39.98;37.70;45.23;;
60031;Laerm;45901;47.600;9.890;2023-04-25T07:08:08;40.52;38.05;45.30;;
60031;Laerm;45901;47.600;9.890;2023-04-25T07:10:35;40.30;37.70;44.23;;
60031;Laerm;45901;47.600;9.890;2023-04-25T07:13:02;40.64;37.87;48.25;;
60031;Laerm;45901;47.600;9.890;2023-04-25T07:15:30;40.38;37.70;46.73;;
60031;Laerm;45901;47.600;9.890;2023-04-25T07:17:57;40.60;37.32;44.51;;
60031;Laerm;45901;47.600;9.890;2023-04-25T07:20:24;40.43;37.52;47.46;;
60031;Laerm;45901;47.600;9.890;2023-04-25T07:22:53;41.59;37.32;68.78;;
60031;Laerm;45901;47.600;9.890;2023-04-25T07:25:22;40.24;37.52;52.79;;
60031;Laerm;45901;47.600;9.890;2023-04-25T07:27:49;40.33;36.91;57.67;;
60031;Laerm;45901;47.600;9.890;2023-04-25T07:30:16;40.33;37.32;47.18;;
60031;Laerm;45901;47.600;9.890;2023-04-25T07:32:44;40.24;37.52;52.17;;
60031;Laerm;45901;47.600;9.890;2023-04-25T07:35:11;40.22;37.70;46.76;;
60031;Laerm;45901;47.600;9.890;2023-04-25T07:37:38;41.77;37.88;47.12;;
60031;Laerm;45901;47.600;9.890;2023-04-25T07:40:07;39.97;37.32;43.19;;
60031;Laerm;45901;47.600;9.890;2023-04-25T07:42:36;40.23;37.53;44.23;;
60031;Laerm;45901;47.600;9.890;2023-04-25T07:45:04;40.40;37.52;44.08;;
60031;Laerm;45901;47.600;9.890;2023-04-25T07:47:32;40.68;37.52;48.16;;
60031;Laerm;45901;47.600;9.890;2023-04-25T07:49:59;40.28;37.88;46.97;;
60031;Laerm;45901;47.600;9.890;2023-04-25T07:52:26;40.21;37.52;43.39;;
60031;Laerm;45901;47.600;9.890;2023-04-25T07:54:56;40.12;36.91;46.82;;
60031;Laerm;45901;47.600;9.890;2023-04-25T07:57:24;39.68;37.12;41.82;;
60031;Laerm;45901;47.600;9.890;2023-04-25T08:00:08;40.45;36.69;61.25;;
60031;Laerm;45901;47.600;9.890;2023-04-25T08:02:37;40.79;37.52;65.10;;
60031;Laerm;45901;47.600;9.890;2023-04-25T08:05:06;40.81;36.91;48.13;;
60031;Laerm;45901;47.600;9.890;2023-04-25T08:07:37;40.88;37.70;45.66;;
60031;Laerm;45901;47.600;9.890;2023-04-25T08:10:06;40.59;37.88;43.68;;
60031;Laerm;45901;47.600;9.890;2023-04-25T08:12:34;42.73;38.67;52.56;;
60031;Laerm;45901;47.600;9.890;2023-04-25T08:15:07;40.97;38.05;48.26;;
60031;Laerm;45901;47.600;9.890;2023-04-25T08:17:35;41.06;37.88;47.63;;
60031;Laerm;45901;47.600;9.890;2023-04-25T08:20:07;41.36;37.70;47.74;;
60031;Laerm;45901;47.600;9.890;2023-04-25T08:22:40;45.73;39.08;72.80;;
60031;Laerm;45901;47.600;9.890;2023-04-25T08:25:08;42.94;38.37;66.19;;
60031;Laerm;45901;47.600;9.890;2023-04-25T08:27:35;41.24;38.52;44.80;;
60031;Laerm;45901;47.600;9.890;2023-04-25T08:30:13;41.06;38.32;46.57;;
60031;Laerm;45901;47.600;9.890;2023-04-25T08:32:41;41.23;37.88;53.13;;
60031;Laerm;45901;47.600;9.890;2023-04-25T08:35:09;41.10;38.67;49.15;;
60031;Laerm;45901;47.600;9.890;2023-04-25T08:37:37;41.80;39.21;51.43;;
60031;Laerm;45901;47.600;9.890;2023-04-25T08:40:07;42.13;39.46;49.53;;
60031;Laerm;45901;47.600;9.890;2023-04-25T08:42:41;44.38;40.62;52.32;;
60031;Laerm;45901;47.600;9.890;2023-04-25T08:45:11;42.80;40.13;49.10;;
60031;Laerm;45901;47.600;9.890;2023-04-25T08:47:39;42.30;39.70;47.98;;
60031;Laerm;45901;47.600;9.890;2023-04-25T08:50:13;42.04;39.58;47.12;;
60031;Laerm;45901;47.600;9.890;2023-04-25T08:52:44;41.50;39.21;47.38;;
60031;Laerm;45901;47.600;9.890;2023-04-25T08:55:13;41.26;38.95;46.71;;
60031;Laerm;45901;47.600;9.890;2023-04-25T08:57:42;41.35;39.08;46.23;;
60031;Laerm;45901;47.600;9.890;2023-04-25T09:00:12;41.39;38.47;46.25;;
60031;Laerm;45901;47.600;9.890;2023-04-25T09:02:43;41.15;38.81;47.76;;
60031;Laerm;45901;47.600;9.890;2023-04-25T09:05:30;41.90;39.21;50.53;;
60031;Laerm;45901;47.600;9.890;2023-04-25T09:08:40;42.08;39.34;50.31;;
60031;Laerm;45901;47.600;9.890;2023-04-25T09:11:11;40.99;38.81;47.20;;
60031;Laerm;45901;47.600;9.890;2023-04-25T09:17:14;40.22;37.12;45.36;;
60031;Laerm;45901;47.600;9.890;2023-04-25T09:19:41;40.40;38.21;43.19;;
60031;Laerm;45901;47.600;9.890;2023-04-25T09:22:18;40.43;38.37;47.12;;
60031;Laerm;45901;47.600;9.890;2023-04-25T09:24:47;40.74;38.52;43.80;;
60031;Laerm;45901;47.600;9.890;2023-04-25T09:27:19;40.53;38.05;44.87;;
60031;Laerm;45901;47.600;9.890;2023-04-25T09:30:02;40.66;38.21;46.15;;
60031;Laerm;45901;47.600;9.890;2023-04-25T09:32:36;40.50;38.18;44.58;;
60031;Laerm;45901;47.600;9.890;2023-04-25T09:35:06;40.35;37.88;58.54;;
60031;Laerm;45901;47.600;9.890;2023-04-25T09:37:34;40.32;38.05;45.39;;
60031;Laerm;45901;47.600;9.890;2023-04-25T09:40:09;40.13;38.05;44.03;;
60031;Laerm;45901;47.600;9.890;2023-04-25T09:42:41;40.33;38.05;43.77;;
60031;Laerm;45901;47.600;9.890;2023-04-25T09:45:43;40.24;37.88;47.34;;
60031;Laerm;45901;47.600;9.890;2023-04-25T09:48:19;40.16;37.88;46.80;;
60031;Laerm;45901;47.600;9.890;2023-04-25T09:51:05;40.62;38.05;45.63;;
60031;Laerm;45901;47.600;9.890;2023-04-25T09:53:36;40.38;37.52;42.82;;
60031;Laerm;45901;47.600;9.890;2023-04-25T09:56:05;39.94;37.70;42.53;;
60031;Laerm;45901;47.600;9.890;2023-04-25T09:58:34;40.67;38.02;45.34;;
60031;Laerm;45901;47.600;9.890;2023-04-25T10:01:03;41.15;36.91;45.51;;
60031;Laerm;45901;47.600;9.890;2023-04-25T10:03:34;41.39;38.81;43.72;;
60031;Laerm;45901;47.600;9.890;2023-04-25T10:06:06;41.19;38.67;43.81;;
60031;Laerm;45901;47.600;9.890;2023-04-25T10:08:36;40.80;37.70;43.09;;
60031;Laerm;45901;47.600;9.890;2023-04-25T10:11:06;40.86;38.37;43.63;;
60031;Laerm;45901;47.600;9.890;2023-04-25T10:13:36;40.66;38.37;42.65;;
60031;Laerm;45901;47.600;9.890;2023-04-25T10:16:44;40.63;38.21;44.58;;
60031;Laerm;45901;47.600;9.890;2023-04-25T10:19:23;40.41;38.21;42.59;;
60031;Laerm;45901;47.600;9.890;2023-04-25T10:22:08;40.37;37.88;44.20;;
60031;Laerm;45901;47.600;9.890;2023-04-25T10:24:52;40.55;37.70;48.23;;
60031;Laerm;45901;47.600;9.890;2023-04-25T10:27:20;40.38;38.21;42.82;;
60031;Laerm;45901;47.600;9.890;2023-04-25T10:30:01;40.74;38.52;45.83;;
60031;Laerm;45901;47.600;9.890;2023-04-25T10:32:32;40.78;38.37;44.62;;
60031;Laerm;45901;47.600;9.890;2023-04-25T10:35:11;40.70;38.67;43.34;;
60031;Laerm;45901;47.600;9.890;2023-04-25T10:37:57;40.97;38.81;44.59;;
60031;Laerm;45901;47.600;9.890;2023-04-25T10:40:25;41.03;38.52;45.69;;
60031;Laerm;45901;47.600;9.890;2023-04-25T10:42:52;40.77;38.67;42.88;;
60031;Laerm;45901;47.600;9.890;2023-04-25T10:45:20;40.64;38.52;44.54;;
60031;Laerm;45901;47.600;9.890;2023-04-25T10:47:48;40.66;37.88;43.19;;
60031;Laerm;45901;47.600;9.890;2023-04-25T10:50:37;40.60;38.21;43.34;;
60031;Laerm;45901;47.600;9.890;2023-04-25T10:53:21;40.69;38.37;43.77;;
60031;Laerm;45901;47.600;9.890;2023-04-25T10:56:10;40.84;38.52;49.11;;
60031;Laerm;45901;47.600;9.890;2023-04-25T10:58:43;40.91;38.67;50.82;;
60031;Laerm;45901;47.600;9.890;2023-04-25T11:01:10;41.05;38.52;50.53;;
60031;Laerm;45901;47.600;9.890;2023-04-25T11:03:41;41.44;38.67;51.80;;
60031;Laerm;45901;47.600;9.890;2023-04-25T11:06:22;41.07;38.52;43.63;;
60031;Laerm;45901;47.600;9.890;2023-04-25T11:08:53;40.75;38.52;43.81;;
60031;Laerm;45901;47.600;9.890;2023-04-25T11:11:22;40.79;38.37;47.26;;
60031;Laerm;45901;47.600;9.890;2023-04-25T11:13:49;40.62;38.37;42.59;;
60031;Laerm;45901;47.600;9.890;2023-04-25T11:16:18;40.60;37.88;44.47;;
60031;Laerm;45901;47.600;9.890;2023-04-25T11:18:45;40.75;38.52;45.04;;
60031;Laerm;45901;47.600;9.890;2023-04-25T11:21:54;40.84;38.37;55.03;;
60031;Laerm;45901;47.600;9.890;2023-04-25T11:24:26;40.68;37.88;43.81;;
60031;Laerm;45901;47.600;9.890;2023-04-25T11:26:54;40.60;38.37;42.98;;
60031;Laerm;45901;47.600;9.890;2023-04-25T11:29:22;40.36;38.05;42.65;;
60031;Laerm;45901;47.600;9.890;2023-04-25T11:31:59;40.39;37.88;44.73;;
60031;Laerm;45901;47.600;9.890;2023-04-25T11:34:31;40.43;38.21;45.14;;
60031;Laerm;45901;47.600;9.890;2023-04-25T11:37:02;40.64;38.37;42.53;;
60031;Laerm;45901;47.600;9.890;2023-04-25T11:39:30;40.57;38.05;42.41;;
60031;Laerm;45901;47.600;9.890;2023-04-25T11:41:57;40.27;38.21;43.72;;
60031;Laerm;45901;47.600;9.890;2023-04-25T11:44:28;40.49;38.21;45.72;;
60031;Laerm;45901;47.600;9.890;2023-04-25T11:46:56;40.42;38.21;46.05;;
60031;Laerm;45901;47.600;9.890;2023-04-25T11:49:24;40.34;38.05;43.60;;
60031;Laerm;45901;47.600;9.890;2023-04-25T11:51:51;40.75;37.88;53.11;;
60031;Laerm;45901;47.600;9.890;2023-04-25T11:54:20;43.68;37.88;59.82;;
60031;Laerm;45901;47.600;9.890;2023-04-25T11:56:47;40.76;38.21;43.68;;
60031;Laerm;45901;47.600;9.890;2023-04-25T11:59:14;40.32;37.70;49.45;;
60031;Laerm;45901;47.600;9.890;2023-04-25T12:01:50;40.26;37.70;45.45;;
60031;Laerm;45901;47.600;9.890;2023-04-25T12:04:20;40.36;37.70;43.86;;
60031;Laerm;45901;47.600;9.890;2023-04-25T12:06:50;40.50;38.21;43.44;;
60031;Laerm;45901;47.600;9.890;2023-04-25T12:09:21;40.20;38.05;46.76;;
60031;Laerm;45901;47.600;9.890;2023-04-25T12:11:53;40.66;37.70;52.66;;
60031;Laerm;45901;47.600;9.890;2023-04-25T12:14:25;40.67;38.52;49.55;;
60031;Laerm;45901;47.600;9.890;2023-04-25T12:16:55;43.50;38.95;53.90;;
60031;Laerm;45901;47.600;9.890;2023-04-25T12:19:23;48.25;40.71;63.32;;
60031;Laerm;45901;47.600;9.890;2023-04-25T12:21:52;46.12;40.53;58.72;;
60031;Laerm;45901;47.600;9.890;2023-04-25T12:24:23;46.72;39.21;56.53;;
60031;Laerm;45901;47.600;9.890;2023-04-25T12:26:59;43.08;38.37;62.41;;
60031;Laerm;45901;47.600;9.890;2023-04-25T12:29:30;40.15;37.52;44.90;;
60031;Laerm;45901;47.600;9.890;2023-04-25T12:31:58;40.51;38.05;45.59;;
60031;Laerm;45901;47.600;9.890;2023-04-25T12:34:28;40.67;38.05;44.65;;
60031;Laerm;45901;47.600;9.890;2023-04-25T12:36:55;40.72;38.37;58.28;;
60031;Laerm;45901;47.600;9.890;2023-04-25T12:39:24;44.28;38.37;59.67;;
60031;Laerm;45901;47.600;9.890;2023-04-25T12:41:52;41.30;38.52;54.61;;
60031;Laerm;45901;47.600;9.890;2023-04-25T12:44:21;41.58;39.08;54.44;;
60031;Laerm;45901;47.600;9.890;2023-04-25T12:46:49;41.60;38.67;54.16;;
60031;Laerm;45901;47.600;9.890;2023-04-25T12:49:16;42.24;38.52;59.05;;
60031;Laerm;45901;47.600;9.890;2023-04-25T12:51:44;40.56;38.37;44.80;;
60031;Laerm;45901;47.600;9.890;2023-04-25T12:54:11;40.66;38.05;52.86;;
60031;Laerm;45901;47.600;9.890;2023-04-25T12:56:41;40.49;37.70;43.29;;
60031;Laerm;45901;47.600;9.890;2023-04-25T13:03:37;40.45;38.21;47.67;;
60031;Laerm;45901;47.600;9.890;2023-04-25T13:06:06;41.04;38.21;53.16;;
60031;Laerm;45901;47.600;9.890;2023-04-25T13:09:15;41.23;38.37;48.61;;
60031;Laerm;45901;47.600;9.890;2023-04-25T16:01:07;40.47;37.70;44.87;;
60031;Laerm;45901;47.600;9.890;2023-04-25T16:03:34;40.16;37.70;43.90;;
60031;Laerm;45901;47.600;9.890;2023-04-25T16:06:01;40.04;37.52;43.14;;
60031;Laerm;45901;47.600;9.890;2023-04-25T16:08:28;40.43;37.70;44.80;;
60031;Laerm;45901;47.600;9.890;2023-04-25T16:10:59;40.37;38.05;43.94;;
60031;Laerm;45901;47.600;9.890;2023-04-25T16:13:26;41.12;39.08;46.20;;
60031;Laerm;45901;47.600;9.890;2023-04-25T16:15:54;41.55;38.95;48.32;;
60031;Laerm;45901;47.600;9.890;2023-04-25T16:18:23;42.10;39.70;47.18;;
60031;Laerm;45901;47.600;9.890;2023-04-25T16:20:50;42.05;39.46;47.68;;
60031;Laerm;45901;47.600;9.890;2023-04-25T16:23:18;41.06;38.37;44.39;;
60031;Laerm;45901;47.600;9.890;2023-04-25T16:25:45;41.56;39.08;46.73;;
60031;Laerm;45901;47.600;9.890;2023-04-25T16:28:12;41.88;39.08;48.54;;
60031;Laerm;45901;47.600;9.890;2023-04-25T16:30:39;41.62;39.34;47.36;;
60031;Laerm;45901;47.600;9.890;2023-04-25T16:33:07;41.48;38.95;46.40;;
60031;Laerm;45901;47.600;9.890;2023-04-25T16:35:36;41.30;39.08;45.42;;
60031;Laerm;45901;47.600;9.890;2023-04-25T16:38:03;42.13;39.58;47.77;;
60031;Laerm;45901;47.600;9.890;2023-04-25T16:40:30;43.11;39.92;50.14;;
60031;Laerm;45901;47.600;9.890;2023-04-25T16:42:57;45.75;41.46;51.24;;
60031;Laerm;45901;47.600;9.890;2023-04-25T16:45:25;42.51;39.23;48.64;;
60031;Laerm;45901;47.600;9.890;2023-04-25T16:47:53;40.67;38.21;46.10;;
60031;Laerm;45901;47.600;9.890;2023-04-25T16:50:20;40.02;37.88;43.90;;
60031;Laerm;45901;47.600;9.890;2023-04-25T16:52:48;40.15;37.88;43.63;;
60031;Laerm;45901;47.600;9.890;2023-04-25T16:55:16;40.38;37.32;49.41;;